Nearby METAR Reports

 

LELL - Sabadell, Spain
Distance from station: E 18km
Updated: 18/01/2019 11:00
Mostly cloudy
Mostly cloudy
 Wind from varies
Wind: varies 4 km/h
Temperature: 6°C
Dew Point: 4°C
Humidity: 87%
Barometer: 1019 hPa
Clouds: Mostly cloudy
Visibility: 9 km
Cloud details: Mostly cloudy 701 m
2019/01/18 10:00 LELL 181000Z VRB02KT 9000 BKN023 06/04 Q1019
LEBL - Barcelona Airpor, Spain
Distance from station: SSE 33km
Updated: 18/01/2019 11:00
Mostly cloudy
Mostly cloudy
 Wind from NNW
Wind: NNW 24 km/h
Temperature: 7°C
Wind Chill: 3°C
Dew Point: 3°C
Humidity: 76%
Barometer: 1019 hPa
Clouds: Mostly cloudy
Visibility: 9 km
Cloud details: Partly cloudy 762 m
Mostly cloudy 1219 m
2019/01/18 10:00 LEBL 181000Z 33013KT 9000 SCT025 BKN040 07/03 Q1019 NOSIG
LERS - Reus (civ/Mil), Spain
Distance from station: SW 75km
Updated: 18/01/2019 11:00
Few Clouds
Few Clouds
 Wind from E
Wind: E 7 km/h
Temperature: 9°C
Wind Chill: 8°C
Dew Point: 3°C
Humidity: 66%
Barometer: 1019 hPa
Clouds: Few Clouds
Visibility: 10 km
Cloud details: Few Clouds 914 m
2019/01/18 10:00 LERS 181000Z 10004KT 040V150 9999 FEW030 09/03 Q1019
 
LEGE - Gerona/Costa Bra, Spain
Distance from station: ENE 83km
Updated: 18/01/2019 11:00
Mostly cloudy
Mostly cloudy
 Wind from N
Wind: N 6 km/h
Temperature: 6°C
Dew Point: 6°C
Humidity: 100%
Barometer: 1018 hPa
Clouds: Mostly cloudy
Visibility: 9 km
Cloud details: Few Clouds 305 m
Mostly cloudy 792 m
2019/01/18 10:00 LEGE 181000Z 01003KT 340V050 9000 FEW010 BKN026 06/06 Q1018
LFMP - Perpignan/Rivesa, France
Distance from station: NNE 155km
Updated: 18/01/2019 11:00
Few Clouds
Few Clouds
 Wind from NW
Wind: NW 19 km/h
Temperature: 9°C
Wind Chill: 6°C
Dew Point: 2°C
Humidity: 62%
Barometer: 1018 hPa
Clouds: Few Clouds
Visibility: 10 km
Cloud details: Few Clouds 1067 m
2019/01/18 10:00 LFMP 181000Z AUTO 31010KT 9999 FEW035/// 09/02 Q1018 NOSIG
LFMK - Carcassonne/Salv, France
Distance from station: N 191km
Updated: 18/01/2019 11:00
Clear
Clear
 Wind from W
Wind: W 15 km/h
Temperature: 7°C
Wind Chill: 4°C
Dew Point: 4°C
Humidity: 81%
Barometer: 1019 hPa
Summary: Clear
Visibility: greater than 10 km
2019/01/18 10:00 LFMK 181000Z AUTO 26008KT 230V290 CAVOK 07/04 Q1019 NOSIG
 
LEHC - Huesca-Pirineos, Spain
Distance from station: WNW 193km
Updated: 18/01/2019 11:00
Freezing fog, Overcast
Freezing fog, Overcast
 Wind from ENE
Wind: ENE 4 km/h
Temperature: -1°C
Dew Point: -1°C
Humidity: 100%
Barometer: 1018 hPa
Summary: Freezing Fog
Clouds: Overcast
Visibility: 0 km
Cloud details: Overcast 61 m
2019/01/18 10:00 LEHC 181000Z 07002KT 0100 R30L/0400N FZFG VV002 M01/M01 Q1018
LFMU - Beziers/Vias, France
Distance from station: NNE 232km
Updated: 18/01/2019 11:00
Clear
Clear
 Wind from WNW
Wind: WNW 13 km/h
Temperature: 9°C
Wind Chill: 7°C
Dew Point: 2°C
Humidity: 62%
Barometer: 1018 hPa
Summary: Clear
Visibility: greater than 10 km
2019/01/18 10:00 LFMU 181000Z AUTO 29007KT CAVOK 09/02 Q1018 NOSIG
LEPA - Palma De Mallorc, Spain
Distance from station: SSE 233km
Updated: 18/01/2019 11:00
Mostly cloudy
Mostly cloudy
 Wind from ENE
Wind: ENE 15 km/h
Temperature: 11°C
Dew Point: 8°C
Humidity: 82%
Barometer: 1018 hPa
Clouds: Mostly cloudy
Visibility: 10 km
Cloud details: Few Clouds 610 m
Mostly cloudy 1829 m
2019/01/18 10:00 LEPA 181000Z 06008KT 9999 FEW020 BKN060 11/08 Q1018 NOSIG
 
LFBO - Toulouse/Blagnac, France
Distance from station: N 236km
Updated: 18/01/2019 11:00
Partly cloudy
Partly cloudy
 Wind from varies
Wind: varies 6 km/h
Temperature: 4°C
Dew Point: 4°C
Humidity: 100%
Barometer: 1019 hPa
Clouds: Partly cloudy
Visibility: 10 km
Cloud details: Few Clouds 671 m
Partly cloudy 1494 m
2019/01/18 10:00 LFBO 181000Z AUTO VRB03KT 9999 FEW022 SCT049 04/04 Q1019 NOSIG
LFBT - Tarbes/Ossun, France
Distance from station: NW 239km
Updated: 18/01/2019 11:00
Partly cloudy
Partly cloudy
 Wind from SSE
Wind: SSE 9 km/h
Temperature: 5°C
Wind Chill: 3°C
Dew Point: 2°C
Humidity: 81%
Barometer: 1019 hPa
Clouds: Partly cloudy
Visibility: 10 km
Cloud details: Few Clouds 2316 m
Partly cloudy 5791 m
2019/01/18 10:00 LFBT 181000Z AUTO 15005KT 9999 FEW076 SCT190 05/02 Q1019 NOSIG
LEZG - Zaragoza (mil/Ci, Spain
Distance from station: W 242km
Updated: 18/01/2019 11:00
Few Clouds
Few Clouds
 Wind from W
Wind: W 17 km/h
Temperature: 7°C
Wind Chill: 4°C
Dew Point: 1°C
Humidity: 66%
Barometer: 1019 hPa
Clouds: Few Clouds
Visibility: 10 km
Cloud details: Few Clouds 2134 m
2019/01/18 10:00 LEZG 181000Z 26009KT 9999 FEW070 07/01 Q1019